sensor_id;sensor_type;location;lat;lon;timestamp;temperature;humidity
9225;DHT22;4647;48.072;11.616;2022-07-29T00:01:51;19.30;99.90
9225;DHT22;4647;48.072;11.616;2022-07-29T00:04:18;19.30;99.90
9225;DHT22;4647;48.072;11.616;2022-07-29T00:06:45;19.30;99.90
9225;DHT22;4647;48.072;11.616;2022-07-29T00:09:13;19.30;99.90
9225;DHT22;4647;48.072;11.616;2022-07-29T00:11:40;19.20;99.90
9225;DHT22;4647;48.072;11.616;2022-07-29T00:14:07;19.30;99.90
9225;DHT22;4647;48.072;11.616;2022-07-29T00:16:34;19.30;99.90
9225;DHT22;4647;48.072;11.616;2022-07-29T00:19:01;19.30;99.90
9225;DHT22;4647;48.072;11.616;2022-07-29T00:21:28;19.30;99.90
9225;DHT22;4647;48.072;11.616;2022-07-29T00:23:55;19.30;99.90
9225;DHT22;4647;48.072;11.616;2022-07-29T00:26:23;19.30;99.90
9225;DHT22;4647;48.072;11.616;2022-07-29T00:28:53;19.30;99.90
9225;DHT22;4647;48.072;11.616;2022-07-29T00:31:19;19.30;99.90
9225;DHT22;4647;48.072;11.616;2022-07-29T00:33:46;19.30;99.90
9225;DHT22;4647;48.072;11.616;2022-07-29T00:36:13;19.30;99.90
9225;DHT22;4647;48.072;11.616;2022-07-29T00:38:39;19.30;99.90
9225;DHT22;4647;48.072;11.616;2022-07-29T00:41:09;19.30;99.90
9225;DHT22;4647;48.072;11.616;2022-07-29T00:43:38;19.30;99.90
9225;DHT22;4647;48.072;11.616;2022-07-29T00:46:05;19.30;99.90
9225;DHT22;4647;48.072;11.616;2022-07-29T00:48:32;19.20;99.90
9225;DHT22;4647;48.072;11.616;2022-07-29T00:50:59;19.20;99.90
9225;DHT22;4647;48.072;11.616;2022-07-29T00:53:27;19.20;99.90
9225;DHT22;4647;48.072;11.616;2022-07-29T00:55:56;19.20;99.90
9225;DHT22;4647;48.072;11.616;2022-07-29T00:58:23;19.20;99.90
9225;DHT22;4647;48.072;11.616;2022-07-29T01:00:52;19.20;99.90
9225;DHT22;4647;48.072;11.616;2022-07-29T01:03:19;19.20;99.90
9225;DHT22;4647;48.072;11.616;2022-07-29T01:05:46;19.00;99.90
9225;DHT22;4647;48.072;11.616;2022-07-29T01:08:15;19.00;99.90
9225;DHT22;4647;48.072;11.616;2022-07-29T01:10:44;19.00;99.90
9225;DHT22;4647;48.072;11.616;2022-07-29T01:13:12;19.00;99.90
9225;DHT22;4647;48.072;11.616;2022-07-29T01:15:43;19.00;99.90
9225;DHT22;4647;48.072;11.616;2022-07-29T01:18:16;19.00;99.90
9225;DHT22;4647;48.072;11.616;2022-07-29T01:21:03;19.00;99.90
9225;DHT22;4647;48.072;11.616;2022-07-29T01:23:52;19.00;99.90
9225;DHT22;4647;48.072;11.616;2022-07-29T01:26:33;19.10;99.90
9225;DHT22;4647;48.072;11.616;2022-07-29T01:29:09;19.10;99.90
9225;DHT22;4647;48.072;11.616;2022-07-29T01:31:42;19.10;99.90
9225;DHT22;4647;48.072;11.616;2022-07-29T01:34:14;19.00;99.90
9225;DHT22;4647;48.072;11.616;2022-07-29T01:36:47;19.00;99.90
9225;DHT22;4647;48.072;11.616;2022-07-29T01:39:19;19.10;99.90
9225;DHT22;4647;48.072;11.616;2022-07-29T01:41:50;19.00;99.90
9225;DHT22;4647;48.072;11.616;2022-07-29T01:44:27;19.00;99.90
9225;DHT22;4647;48.072;11.616;2022-07-29T01:47:00;19.00;99.90
9225;DHT22;4647;48.072;11.616;2022-07-29T01:49:31;19.00;99.90
9225;DHT22;4647;48.072;11.616;2022-07-29T01:52:03;19.00;99.90
9225;DHT22;4647;48.072;11.616;2022-07-29T01:54:35;19.00;99.90
9225;DHT22;4647;48.072;11.616;2022-07-29T01:57:05;18.90;99.90
9225;DHT22;4647;48.072;11.616;2022-07-29T01:59:35;19.00;99.90
9225;DHT22;4647;48.072;11.616;2022-07-29T02:02:04;18.90;99.90
9225;DHT22;4647;48.072;11.616;2022-07-29T02:04:35;18.80;99.90
9225;DHT22;4647;48.072;11.616;2022-07-29T02:07:05;18.80;99.90
9225;DHT22;4647;48.072;11.616;2022-07-29T02:09:35;18.80;99.90
9225;DHT22;4647;48.072;11.616;2022-07-29T02:12:04;18.80;99.90
9225;DHT22;4647;48.072;11.616;2022-07-29T02:14:36;18.90;99.90
9225;DHT22;4647;48.072;11.616;2022-07-29T02:17:04;18.90;99.90
9225;DHT22;4647;48.072;11.616;2022-07-29T02:19:32;18.90;99.90
9225;DHT22;4647;48.072;11.616;2022-07-29T02:22:01;18.90;99.90
9225;DHT22;4647;48.072;11.616;2022-07-29T02:24:30;18.90;99.90
9225;DHT22;4647;48.072;11.616;2022-07-29T02:26:58;18.80;99.90
9225;DHT22;4647;48.072;11.616;2022-07-29T02:29:28;18.80;99.90
9225;DHT22;4647;48.072;11.616;2022-07-29T02:31:57;18.80;99.90
9225;DHT22;4647;48.072;11.616;2022-07-29T02:34:25;18.80;99.90
9225;DHT22;4647;48.072;11.616;2022-07-29T02:36:52;18.70;99.90
9225;DHT22;4647;48.072;11.616;2022-07-29T02:39:22;18.80;99.90
9225;DHT22;4647;48.072;11.616;2022-07-29T02:41:52;18.70;99.90
9225;DHT22;4647;48.072;11.616;2022-07-29T02:44:20;18.70;99.90
9225;DHT22;4647;48.072;11.616;2022-07-29T02:46:51;18.70;99.90
9225;DHT22;4647;48.072;11.616;2022-07-29T02:49:31;18.60;99.90
9225;DHT22;4647;48.072;11.616;2022-07-29T02:52:02;18.70;99.90
9225;DHT22;4647;48.072;11.616;2022-07-29T02:54:34;18.60;99.90
9225;DHT22;4647;48.072;11.616;2022-07-29T02:57:08;18.60;99.90
9225;DHT22;4647;48.072;11.616;2022-07-29T02:59:36;18.50;99.90
9225;DHT22;4647;48.072;11.616;2022-07-29T03:02:04;18.40;99.90
9225;DHT22;4647;48.072;11.616;2022-07-29T03:04:35;18.40;99.90
9225;DHT22;4647;48.072;11.616;2022-07-29T03:07:03;18.30;99.90
9225;DHT22;4647;48.072;11.616;2022-07-29T03:09:30;18.30;99.90
9225;DHT22;4647;48.072;11.616;2022-07-29T03:11:57;18.30;99.90
9225;DHT22;4647;48.072;11.616;2022-07-29T03:14:24;18.20;99.90
9225;DHT22;4647;48.072;11.616;2022-07-29T03:16:52;18.20;99.90
9225;DHT22;4647;48.072;11.616;2022-07-29T03:19:19;18.10;99.90
9225;DHT22;4647;48.072;11.616;2022-07-29T03:21:48;17.80;99.90
9225;DHT22;4647;48.072;11.616;2022-07-29T03:24:29;17.50;99.90
9225;DHT22;4647;48.072;11.616;2022-07-29T03:26:57;17.60;99.90
9225;DHT22;4647;48.072;11.616;2022-07-29T03:29:25;17.60;99.90
9225;DHT22;4647;48.072;11.616;2022-07-29T03:31:52;17.60;99.90
9225;DHT22;4647;48.072;11.616;2022-07-29T03:34:19;17.60;99.90
9225;DHT22;4647;48.072;11.616;2022-07-29T03:36:48;17.50;99.90
9225;DHT22;4647;48.072;11.616;2022-07-29T03:39:17;17.30;99.90
9225;DHT22;4647;48.072;11.616;2022-07-29T03:41:46;17.40;99.90
9225;DHT22;4647;48.072;11.616;2022-07-29T03:44:15;17.20;99.90
9225;DHT22;4647;48.072;11.616;2022-07-29T03:46:44;17.10;99.90
9225;DHT22;4647;48.072;11.616;2022-07-29T03:49:14;17.00;99.90
9225;DHT22;4647;48.072;11.616;2022-07-29T03:51:44;16.80;99.90
9225;DHT22;4647;48.072;11.616;2022-07-29T03:54:13;16.80;99.90
9225;DHT22;4647;48.072;11.616;2022-07-29T03:56:42;16.80;99.90
9225;DHT22;4647;48.072;11.616;2022-07-29T03:59:13;16.80;99.90
9225;DHT22;4647;48.072;11.616;2022-07-29T04:01:41;16.80;99.90
9225;DHT22;4647;48.072;11.616;2022-07-29T04:04:08;16.70;99.90
9225;DHT22;4647;48.072;11.616;2022-07-29T04:06:39;16.60;99.90
9225;DHT22;4647;48.072;11.616;2022-07-29T04:09:07;16.50;99.90
9225;DHT22;4647;48.072;11.616;2022-07-29T04:11:36;16.60;99.90
9225;DHT22;4647;48.072;11.616;2022-07-29T04:14:03;16.60;99.90
9225;DHT22;4647;48.072;11.616;2022-07-29T04:16:30;16.70;99.90
9225;DHT22;4647;48.072;11.616;2022-07-29T04:18:57;16.70;99.90
9225;DHT22;4647;48.072;11.616;2022-07-29T04:21:24;16.60;99.90
9225;DHT22;4647;48.072;11.616;2022-07-29T04:23:51;16.60;99.90
9225;DHT22;4647;48.072;11.616;2022-07-29T04:26:19;16.70;99.90
9225;DHT22;4647;48.072;11.616;2022-07-29T04:28:48;16.80;99.90
9225;DHT22;4647;48.072;11.616;2022-07-29T04:31:14;17.10;99.90
9225;DHT22;4647;48.072;11.616;2022-07-29T04:33:41;17.60;99.90
9225;DHT22;4647;48.072;11.616;2022-07-29T04:36:08;18.30;99.90
9225;DHT22;4647;48.072;11.616;2022-07-29T04:38:36;18.90;99.90
9225;DHT22;4647;48.072;11.616;2022-07-29T04:41:03;19.50;99.90
9225;DHT22;4647;48.072;11.616;2022-07-29T04:43:30;20.00;99.90
9225;DHT22;4647;48.072;11.616;2022-07-29T04:45:59;20.70;99.90
9225;DHT22;4647;48.072;11.616;2022-07-29T04:48:25;21.50;99.90
9225;DHT22;4647;48.072;11.616;2022-07-29T04:50:53;22.20;99.90
9225;DHT22;4647;48.072;11.616;2022-07-29T04:53:20;22.70;98.90
9225;DHT22;4647;48.072;11.616;2022-07-29T04:55:46;23.00;97.80
9225;DHT22;4647;48.072;11.616;2022-07-29T04:58:13;23.10;97.10
9225;DHT22;4647;48.072;11.616;2022-07-29T05:00:40;23.60;96.10
9225;DHT22;4647;48.072;11.616;2022-07-29T05:03:09;23.80;95.30
9225;DHT22;4647;48.072;11.616;2022-07-29T05:05:35;24.40;94.40
9225;DHT22;4647;48.072;11.616;2022-07-29T05:08:03;24.60;93.00
9225;DHT22;4647;48.072;11.616;2022-07-29T05:10:30;24.90;92.20
9225;DHT22;4647;48.072;11.616;2022-07-29T05:12:56;25.10;91.30
9225;DHT22;4647;48.072;11.616;2022-07-29T05:15:23;24.80;91.10
9225;DHT22;4647;48.072;11.616;2022-07-29T05:17:50;24.40;92.30
9225;DHT22;4647;48.072;11.616;2022-07-29T05:20:19;23.70;92.70
9225;DHT22;4647;48.072;11.616;2022-07-29T05:22:51;22.80;94.30
9225;DHT22;4647;48.072;11.616;2022-07-29T05:25:18;22.30;95.70
9225;DHT22;4647;48.072;11.616;2022-07-29T05:27:45;21.80;97.20
9225;DHT22;4647;48.072;11.616;2022-07-29T05:30:12;21.50;98.00
9225;DHT22;4647;48.072;11.616;2022-07-29T05:32:39;21.20;98.70
9225;DHT22;4647;48.072;11.616;2022-07-29T05:35:07;21.00;99.60
9225;DHT22;4647;48.072;11.616;2022-07-29T05:37:35;20.90;99.90
9225;DHT22;4647;48.072;11.616;2022-07-29T05:40:03;21.00;99.90
9225;DHT22;4647;48.072;11.616;2022-07-29T05:42:30;21.50;99.70
9225;DHT22;4647;48.072;11.616;2022-07-29T05:44:56;22.20;98.50
9225;DHT22;4647;48.072;11.616;2022-07-29T05:47:23;22.80;97.20
9225;DHT22;4647;48.072;11.616;2022-07-29T05:49:51;23.10;96.60
9225;DHT22;4647;48.072;11.616;2022-07-29T05:52:18;23.30;95.50
9225;DHT22;4647;48.072;11.616;2022-07-29T05:54:46;23.10;95.00
9225;DHT22;4647;48.072;11.616;2022-07-29T05:57:15;22.90;95.10
9225;DHT22;4647;48.072;11.616;2022-07-29T05:59:43;22.60;95.50
9225;DHT22;4647;48.072;11.616;2022-07-29T06:02:10;22.30;96.30
9225;DHT22;4647;48.072;11.616;2022-07-29T06:04:36;22.10;96.40
9225;DHT22;4647;48.072;11.616;2022-07-29T06:07:04;21.90;97.10
9225;DHT22;4647;48.072;11.616;2022-07-29T06:09:30;21.90;97.50
9225;DHT22;4647;48.072;11.616;2022-07-29T06:11:59;21.80;97.50
9225;DHT22;4647;48.072;11.616;2022-07-29T06:14:26;21.80;97.90
9225;DHT22;4647;48.072;11.616;2022-07-29T06:16:53;21.70;98.30
9225;DHT22;4647;48.072;11.616;2022-07-29T06:19:20;21.90;98.10
9225;DHT22;4647;48.072;11.616;2022-07-29T06:21:48;22.00;98.00
9225;DHT22;4647;48.072;11.616;2022-07-29T06:24:15;22.10;97.40
9225;DHT22;4647;48.072;11.616;2022-07-29T06:26:42;22.10;97.70
9225;DHT22;4647;48.072;11.616;2022-07-29T06:29:11;21.90;97.30
9225;DHT22;4647;48.072;11.616;2022-07-29T06:31:38;21.80;97.40
9225;DHT22;4647;48.072;11.616;2022-07-29T06:34:05;21.90;97.50
9225;DHT22;4647;48.072;11.616;2022-07-29T06:36:34;22.10;97.30
9225;DHT22;4647;48.072;11.616;2022-07-29T06:39:04;22.20;97.50
9225;DHT22;4647;48.072;11.616;2022-07-29T06:41:31;22.10;97.40
9225;DHT22;4647;48.072;11.616;2022-07-29T06:43:58;22.20;97.30
9225;DHT22;4647;48.072;11.616;2022-07-29T06:46:26;22.30;97.30
9225;DHT22;4647;48.072;11.616;2022-07-29T06:48:54;22.40;97.20
9225;DHT22;4647;48.072;11.616;2022-07-29T06:51:21;22.50;96.50
9225;DHT22;4647;48.072;11.616;2022-07-29T06:53:48;22.50;96.80
9225;DHT22;4647;48.072;11.616;2022-07-29T06:56:15;22.50;96.40
9225;DHT22;4647;48.072;11.616;2022-07-29T06:58:42;22.80;96.20
9225;DHT22;4647;48.072;11.616;2022-07-29T07:01:09;23.00;96.10
9225;DHT22;4647;48.072;11.616;2022-07-29T07:03:37;23.20;95.70
9225;DHT22;4647;48.072;11.616;2022-07-29T07:06:05;23.30;94.90
9225;DHT22;4647;48.072;11.616;2022-07-29T07:08:31;23.40;94.60
9225;DHT22;4647;48.072;11.616;2022-07-29T07:10:59;23.40;94.30
9225;DHT22;4647;48.072;11.616;2022-07-29T07:13:26;23.20;94.50
9225;DHT22;4647;48.072;11.616;2022-07-29T07:15:53;23.20;94.60
9225;DHT22;4647;48.072;11.616;2022-07-29T07:18:20;23.40;94.70
9225;DHT22;4647;48.072;11.616;2022-07-29T07:20:48;23.50;94.50
9225;DHT22;4647;48.072;11.616;2022-07-29T07:23:15;23.70;94.20
9225;DHT22;4647;48.072;11.616;2022-07-29T07:25:42;23.70;93.90
9225;DHT22;4647;48.072;11.616;2022-07-29T07:28:09;23.60;93.90
9225;DHT22;4647;48.072;11.616;2022-07-29T07:30:36;23.90;94.10
9225;DHT22;4647;48.072;11.616;2022-07-29T07:33:03;23.90;93.20
9225;DHT22;4647;48.072;11.616;2022-07-29T07:35:30;24.10;93.00
9225;DHT22;4647;48.072;11.616;2022-07-29T07:37:59;24.10;92.40
9225;DHT22;4647;48.072;11.616;2022-07-29T07:40:26;24.10;91.00
9225;DHT22;4647;48.072;11.616;2022-07-29T07:42:53;24.00;90.50
9225;DHT22;4647;48.072;11.616;2022-07-29T07:45:20;23.90;90.90
9225;DHT22;4647;48.072;11.616;2022-07-29T07:47:47;23.90;90.70
9225;DHT22;4647;48.072;11.616;2022-07-29T07:50:14;23.80;89.40
9225;DHT22;4647;48.072;11.616;2022-07-29T07:52:48;24.00;90.30
9225;DHT22;4647;48.072;11.616;2022-07-29T07:55:17;24.10;90.40
9225;DHT22;4647;48.072;11.616;2022-07-29T07:57:44;23.90;88.20
9225;DHT22;4647;48.072;11.616;2022-07-29T08:00:12;23.60;89.40
9225;DHT22;4647;48.072;11.616;2022-07-29T08:02:40;23.50;89.50
9225;DHT22;4647;48.072;11.616;2022-07-29T08:05:08;23.60;88.80
9225;DHT22;4647;48.072;11.616;2022-07-29T08:07:36;23.80;89.50
9225;DHT22;4647;48.072;11.616;2022-07-29T08:10:03;24.00;88.50
9225;DHT22;4647;48.072;11.616;2022-07-29T08:12:32;24.20;87.50
9225;DHT22;4647;48.072;11.616;2022-07-29T08:14:59;24.40;87.70
9225;DHT22;4647;48.072;11.616;2022-07-29T08:17:26;24.60;87.20
9225;DHT22;4647;48.072;11.616;2022-07-29T08:19:53;24.60;87.30
9225;DHT22;4647;48.072;11.616;2022-07-29T08:22:23;24.80;85.80
9225;DHT22;4647;48.072;11.616;2022-07-29T08:24:50;24.70;84.60
9225;DHT22;4647;48.072;11.616;2022-07-29T08:27:21;24.50;85.00
9225;DHT22;4647;48.072;11.616;2022-07-29T08:29:50;24.40;85.40
9225;DHT22;4647;48.072;11.616;2022-07-29T08:32:17;24.40;85.20
9225;DHT22;4647;48.072;11.616;2022-07-29T08:34:44;24.60;85.50
9225;DHT22;4647;48.072;11.616;2022-07-29T08:37:12;24.80;84.20
9225;DHT22;4647;48.072;11.616;2022-07-29T08:39:39;25.10;83.60
9225;DHT22;4647;48.072;11.616;2022-07-29T08:42:06;25.30;81.50
9225;DHT22;4647;48.072;11.616;2022-07-29T08:44:33;25.30;81.60
9225;DHT22;4647;48.072;11.616;2022-07-29T08:47:02;25.60;82.10
9225;DHT22;4647;48.072;11.616;2022-07-29T08:49:30;25.90;79.80
9225;DHT22;4647;48.072;11.616;2022-07-29T08:51:58;26.00;77.30
9225;DHT22;4647;48.072;11.616;2022-07-29T08:54:27;26.10;77.40
9225;DHT22;4647;48.072;11.616;2022-07-29T08:56:54;26.60;77.80
9225;DHT22;4647;48.072;11.616;2022-07-29T08:59:23;27.10;77.10
9225;DHT22;4647;48.072;11.616;2022-07-29T09:01:53;27.40;75.50
9225;DHT22;4647;48.072;11.616;2022-07-29T09:04:23;27.30;72.00
9225;DHT22;4647;48.072;11.616;2022-07-29T09:06:52;26.80;74.20
9225;DHT22;4647;48.072;11.616;2022-07-29T09:09:20;26.60;75.20
9225;DHT22;4647;48.072;11.616;2022-07-29T09:11:48;26.50;75.90
9225;DHT22;4647;48.072;11.616;2022-07-29T09:14:15;26.60;77.00
9225;DHT22;4647;48.072;11.616;2022-07-29T09:16:46;26.90;75.80
9225;DHT22;4647;48.072;11.616;2022-07-29T09:19:22;26.80;75.60
9225;DHT22;4647;48.072;11.616;2022-07-29T09:21:50;26.40;75.50
9225;DHT22;4647;48.072;11.616;2022-07-29T09:24:41;26.10;77.40
9225;DHT22;4647;48.072;11.616;2022-07-29T09:27:10;26.10;78.20
9225;DHT22;4647;48.072;11.616;2022-07-29T09:29:37;26.20;78.90
9225;DHT22;4647;48.072;11.616;2022-07-29T09:32:08;26.30;77.10
9225;DHT22;4647;48.072;11.616;2022-07-29T09:34:37;26.60;76.30
9225;DHT22;4647;48.072;11.616;2022-07-29T09:37:04;26.80;75.70
9225;DHT22;4647;48.072;11.616;2022-07-29T09:39:33;26.80;75.60
9225;DHT22;4647;48.072;11.616;2022-07-29T09:42:01;26.50;74.50
9225;DHT22;4647;48.072;11.616;2022-07-29T09:44:42;26.80;76.90
9225;DHT22;4647;48.072;11.616;2022-07-29T09:47:09;27.10;76.40
9225;DHT22;4647;48.072;11.616;2022-07-29T09:49:51;27.30;74.20
9225;DHT22;4647;48.072;11.616;2022-07-29T09:52:18;27.70;73.90
9225;DHT22;4647;48.072;11.616;2022-07-29T09:54:46;27.60;73.00
9225;DHT22;4647;48.072;11.616;2022-07-29T09:57:24;27.50;73.20
9225;DHT22;4647;48.072;11.616;2022-07-29T09:59:58;27.50;72.80
9225;DHT22;4647;48.072;11.616;2022-07-29T10:02:29;27.30;72.60
9225;DHT22;4647;48.072;11.616;2022-07-29T10:04:59;27.30;73.60
9225;DHT22;4647;48.072;11.616;2022-07-29T10:07:26;27.40;74.00
9225;DHT22;4647;48.072;11.616;2022-07-29T10:09:55;27.50;73.60
9225;DHT22;4647;48.072;11.616;2022-07-29T10:12:23;27.40;73.80
9225;DHT22;4647;48.072;11.616;2022-07-29T10:14:50;27.30;74.50
9225;DHT22;4647;48.072;11.616;2022-07-29T10:17:18;27.30;73.50
9225;DHT22;4647;48.072;11.616;2022-07-29T10:19:46;27.10;74.10
9225;DHT22;4647;48.072;11.616;2022-07-29T10:22:15;26.70;75.50
9225;DHT22;4647;48.072;11.616;2022-07-29T10:24:42;26.60;76.60
9225;DHT22;4647;48.072;11.616;2022-07-29T10:27:10;26.60;77.00
9225;DHT22;4647;48.072;11.616;2022-07-29T10:29:37;26.70;76.20
9225;DHT22;4647;48.072;11.616;2022-07-29T10:32:25;26.60;76.90
9225;DHT22;4647;48.072;11.616;2022-07-29T10:35:15;26.60;76.90
9225;DHT22;4647;48.072;11.616;2022-07-29T10:40:52;26.30;75.00
9225;DHT22;4647;48.072;11.616;2022-07-29T10:43:42;26.20;75.10
9225;DHT22;4647;48.072;11.616;2022-07-29T10:46:10;26.20;75.40
9225;DHT22;4647;48.072;11.616;2022-07-29T10:49:05;26.10;76.20
9225;DHT22;4647;48.072;11.616;2022-07-29T10:51:54;26.30;76.10
9225;DHT22;4647;48.072;11.616;2022-07-29T10:57:22;26.30;75.30
9225;DHT22;4647;48.072;11.616;2022-07-29T11:02:59;26.60;75.40
9225;DHT22;4647;48.072;11.616;2022-07-29T11:05:26;26.50;73.30
9225;DHT22;4647;48.072;11.616;2022-07-29T11:08:21;26.50;73.80
9225;DHT22;4647;48.072;11.616;2022-07-29T11:10:50;26.50;73.80
9225;DHT22;4647;48.072;11.616;2022-07-29T11:13:51;26.30;73.40
9225;DHT22;4647;48.072;11.616;2022-07-29T11:16:21;26.00;74.30
9225;DHT22;4647;48.072;11.616;2022-07-29T11:19:22;25.80;78.20
9225;DHT22;4647;48.072;11.616;2022-07-29T11:21:49;26.00;77.10
9225;DHT22;4647;48.072;11.616;2022-07-29T11:24:19;26.30;76.60
9225;DHT22;4647;48.072;11.616;2022-07-29T11:27:10;26.60;75.40
9225;DHT22;4647;48.072;11.616;2022-07-29T11:29:47;26.80;72.40
9225;DHT22;4647;48.072;11.616;2022-07-29T11:32:15;26.80;72.50
9225;DHT22;4647;48.072;11.616;2022-07-29T11:34:45;26.90;70.70
9225;DHT22;4647;48.072;11.616;2022-07-29T11:37:18;27.10;70.40
9225;DHT22;4647;48.072;11.616;2022-07-29T11:39:47;27.10;68.30
9225;DHT22;4647;48.072;11.616;2022-07-29T11:42:47;27.30;68.70
9225;DHT22;4647;48.072;11.616;2022-07-29T11:45:24;27.70;69.10
9225;DHT22;4647;48.072;11.616;2022-07-29T11:47:55;28.10;66.60
9225;DHT22;4647;48.072;11.616;2022-07-29T11:50:34;28.20;64.30
9225;DHT22;4647;48.072;11.616;2022-07-29T11:53:03;28.30;60.90
9225;DHT22;4647;48.072;11.616;2022-07-29T11:55:30;27.90;60.20
9225;DHT22;4647;48.072;11.616;2022-07-29T11:58:01;27.60;61.10
9225;DHT22;4647;48.072;11.616;2022-07-29T12:00:33;27.40;63.10
9225;DHT22;4647;48.072;11.616;2022-07-29T12:03:02;27.70;64.10
9225;DHT22;4647;48.072;11.616;2022-07-29T12:05:35;27.80;63.10
9225;DHT22;4647;48.072;11.616;2022-07-29T12:08:10;27.90;62.70
9225;DHT22;4647;48.072;11.616;2022-07-29T12:10:39;28.10;61.90
9225;DHT22;4647;48.072;11.616;2022-07-29T12:13:06;28.10;62.50
9225;DHT22;4647;48.072;11.616;2022-07-29T12:15:35;28.10;61.30
9225;DHT22;4647;48.072;11.616;2022-07-29T12:18:13;28.20;60.60
9225;DHT22;4647;48.072;11.616;2022-07-29T12:20:40;28.40;61.30
9225;DHT22;4647;48.072;11.616;2022-07-29T12:23:08;28.60;59.00
9225;DHT22;4647;48.072;11.616;2022-07-29T12:25:38;28.60;60.40
9225;DHT22;4647;48.072;11.616;2022-07-29T12:28:07;28.70;60.00
9225;DHT22;4647;48.072;11.616;2022-07-29T12:30:41;28.70;58.50
9225;DHT22;4647;48.072;11.616;2022-07-29T12:33:20;28.70;57.30
9225;DHT22;4647;48.072;11.616;2022-07-29T12:35:49;28.80;58.30
9225;DHT22;4647;48.072;11.616;2022-07-29T12:38:17;29.20;56.00
9225;DHT22;4647;48.072;11.616;2022-07-29T12:40:46;28.70;56.40
9225;DHT22;4647;48.072;11.616;2022-07-29T12:43:15;28.40;57.20
9225;DHT22;4647;48.072;11.616;2022-07-29T12:45:45;28.40;57.30
9225;DHT22;4647;48.072;11.616;2022-07-29T12:48:13;28.10;57.00
9225;DHT22;4647;48.072;11.616;2022-07-29T12:50:57;27.90;57.80
9225;DHT22;4647;48.072;11.616;2022-07-29T12:53:24;28.00;59.80
9225;DHT22;4647;48.072;11.616;2022-07-29T12:55:53;28.30;58.60
9225;DHT22;4647;48.072;11.616;2022-07-29T12:58:31;28.40;58.00
9225;DHT22;4647;48.072;11.616;2022-07-29T13:01:02;28.30;57.60
9225;DHT22;4647;48.072;11.616;2022-07-29T13:03:40;28.00;58.10
9225;DHT22;4647;48.072;11.616;2022-07-29T13:06:30;27.50;58.30
9225;DHT22;4647;48.072;11.616;2022-07-29T13:09:06;27.20;59.50
9225;DHT22;4647;48.072;11.616;2022-07-29T13:11:35;27.30;60.10
9225;DHT22;4647;48.072;11.616;2022-07-29T13:14:02;27.00;60.60
9225;DHT22;4647;48.072;11.616;2022-07-29T13:16:31;26.90;62.20
9225;DHT22;4647;48.072;11.616;2022-07-29T13:19:09;26.80;63.20
9225;DHT22;4647;48.072;11.616;2022-07-29T13:21:39;26.70;62.40
9225;DHT22;4647;48.072;11.616;2022-07-29T13:24:09;26.80;61.40
9225;DHT22;4647;48.072;11.616;2022-07-29T13:26:40;26.70;62.90
9225;DHT22;4647;48.072;11.616;2022-07-29T13:29:07;26.60;63.70
9225;DHT22;4647;48.072;11.616;2022-07-29T13:31:35;26.60;62.30
9225;DHT22;4647;48.072;11.616;2022-07-29T13:34:02;26.40;63.80
9225;DHT22;4647;48.072;11.616;2022-07-29T13:36:31;26.30;64.00
9225;DHT22;4647;48.072;11.616;2022-07-29T13:38:58;26.20;64.40
9225;DHT22;4647;48.072;11.616;2022-07-29T13:41:26;26.20;65.60
9225;DHT22;4647;48.072;11.616;2022-07-29T13:43:53;26.10;65.80
9225;DHT22;4647;48.072;11.616;2022-07-29T13:46:20;26.00;68.60
9225;DHT22;4647;48.072;11.616;2022-07-29T13:48:50;25.80;71.60
9225;DHT22;4647;48.072;11.616;2022-07-29T13:51:20;25.90;71.60
9225;DHT22;4647;48.072;11.616;2022-07-29T13:53:50;25.80;72.20
9225;DHT22;4647;48.072;11.616;2022-07-29T13:56:20;25.90;72.20
9225;DHT22;4647;48.072;11.616;2022-07-29T13:58:52;26.10;74.10
9225;DHT22;4647;48.072;11.616;2022-07-29T14:01:21;26.30;73.90
9225;DHT22;4647;48.072;11.616;2022-07-29T14:03:49;26.50;73.50
9225;DHT22;4647;48.072;11.616;2022-07-29T14:06:16;26.80;73.10
9225;DHT22;4647;48.072;11.616;2022-07-29T14:08:43;26.90;71.40
9225;DHT22;4647;48.072;11.616;2022-07-29T14:11:10;26.90;71.40
9225;DHT22;4647;48.072;11.616;2022-07-29T14:13:37;27.00;70.30
9225;DHT22;4647;48.072;11.616;2022-07-29T14:16:04;26.70;69.60
9225;DHT22;4647;48.072;11.616;2022-07-29T14:18:32;26.60;69.90
9225;DHT22;4647;48.072;11.616;2022-07-29T14:21:01;26.50;71.10
9225;DHT22;4647;48.072;11.616;2022-07-29T14:23:28;26.80;72.20
9225;DHT22;4647;48.072;11.616;2022-07-29T14:25:55;27.20;71.30
9225;DHT22;4647;48.072;11.616;2022-07-29T14:28:22;27.10;68.20
9225;DHT22;4647;48.072;11.616;2022-07-29T14:30:49;26.90;69.10
9225;DHT22;4647;48.072;11.616;2022-07-29T14:33:16;26.90;70.00
9225;DHT22;4647;48.072;11.616;2022-07-29T14:35:43;26.90;69.40
9225;DHT22;4647;48.072;11.616;2022-07-29T14:38:12;26.80;69.90
9225;DHT22;4647;48.072;11.616;2022-07-29T14:40:38;26.70;70.40
9225;DHT22;4647;48.072;11.616;2022-07-29T14:43:05;26.50;71.80
9225;DHT22;4647;48.072;11.616;2022-07-29T14:45:32;26.70;72.20
9225;DHT22;4647;48.072;11.616;2022-07-29T14:47:59;26.60;70.80
9225;DHT22;4647;48.072;11.616;2022-07-29T14:50:26;26.60;70.30
9225;DHT22;4647;48.072;11.616;2022-07-29T14:52:53;26.50;70.20
9225;DHT22;4647;48.072;11.616;2022-07-29T14:55:21;26.40;70.40
9225;DHT22;4647;48.072;11.616;2022-07-29T14:57:49;26.50;71.90
9225;DHT22;4647;48.072;11.616;2022-07-29T15:00:17;26.50;71.70
9225;DHT22;4647;48.072;11.616;2022-07-29T15:02:44;26.30;71.30
9225;DHT22;4647;48.072;11.616;2022-07-29T15:05:11;26.20;72.40
9225;DHT22;4647;48.072;11.616;2022-07-29T15:07:38;26.00;72.50
9225;DHT22;4647;48.072;11.616;2022-07-29T15:10:06;25.90;72.70
9225;DHT22;4647;48.072;11.616;2022-07-29T15:12:34;25.80;73.10
9225;DHT22;4647;48.072;11.616;2022-07-29T15:15:01;25.70;73.40
9225;DHT22;4647;48.072;11.616;2022-07-29T15:17:28;25.60;74.00
9225;DHT22;4647;48.072;11.616;2022-07-29T15:19:55;25.50;74.20
9225;DHT22;4647;48.072;11.616;2022-07-29T15:22:22;25.50;74.60
9225;DHT22;4647;48.072;11.616;2022-07-29T15:24:49;25.40;75.10
9225;DHT22;4647;48.072;11.616;2022-07-29T15:27:15;25.20;76.00
9225;DHT22;4647;48.072;11.616;2022-07-29T15:29:44;25.20;77.20
9225;DHT22;4647;48.072;11.616;2022-07-29T15:32:11;25.30;77.20
9225;DHT22;4647;48.072;11.616;2022-07-29T15:34:38;25.40;76.90
9225;DHT22;4647;48.072;11.616;2022-07-29T15:37:05;25.50;77.30
9225;DHT22;4647;48.072;11.616;2022-07-29T15:39:32;25.50;75.80
9225;DHT22;4647;48.072;11.616;2022-07-29T15:41:59;25.60;75.00
9225;DHT22;4647;48.072;11.616;2022-07-29T15:44:26;25.60;76.20
9225;DHT22;4647;48.072;11.616;2022-07-29T15:46:54;25.60;76.10
9225;DHT22;4647;48.072;11.616;2022-07-29T15:49:32;25.60;75.70
9225;DHT22;4647;48.072;11.616;2022-07-29T15:51:59;25.50;75.90
9225;DHT22;4647;48.072;11.616;2022-07-29T15:54:26;25.30;76.10
9225;DHT22;4647;48.072;11.616;2022-07-29T15:56:53;25.20;76.80
9225;DHT22;4647;48.072;11.616;2022-07-29T15:59:21;25.20;77.80
9225;DHT22;4647;48.072;11.616;2022-07-29T16:01:48;25.10;78.00
9225;DHT22;4647;48.072;11.616;2022-07-29T16:04:17;25.00;78.80
9225;DHT22;4647;48.072;11.616;2022-07-29T16:06:45;24.80;80.00
9225;DHT22;4647;48.072;11.616;2022-07-29T16:09:12;24.60;81.20